createdAt,value
2022-12-01T00:01:37.436Z,12.00
2022-12-01T00:04:05.957Z,16.50
2022-12-01T00:06:36.790Z,14.00
2022-12-01T00:09:23.605Z,15.00
2022-12-01T00:11:52.190Z,11.00
2022-12-01T00:14:20.570Z,9.00
2022-12-01T00:16:48.976Z,7.00
2022-12-01T00:19:18.144Z,13.50
2022-12-01T00:21:46.831Z,17.50
2022-12-01T00:24:15.010Z,18.33
2022-12-01T00:26:43.282Z,12.00
2022-12-01T00:29:11.865Z,12.00
2022-12-01T00:31:40.113Z,10.00
2022-12-01T00:34:22.962Z,15.00
2022-12-01T00:36:51.852Z,14.33
2022-12-01T00:39:20.232Z,13.00
2022-12-01T00:41:48.616Z,10.00
2022-12-01T00:44:16.992Z,15.67
2022-12-01T00:46:45.266Z,14.50
2022-12-01T00:49:14.078Z,13.00
2022-12-01T00:51:42.433Z,14.00
2022-12-01T00:54:10.816Z,15.00
2022-12-01T00:56:39.197Z,14.33
2022-12-01T00:59:07.476Z,14.50
2022-12-01T01:01:35.906Z,14.00
2022-12-01T01:04:04.841Z,10.50
2022-12-01T01:06:33.324Z,16.00
2022-12-01T01:09:01.606Z,19.00
2022-12-01T01:11:29.980Z,11.00
2022-12-01T01:14:00.045Z,11.33
2022-12-01T01:16:28.418Z,12.00
2022-12-01T01:18:58.546Z,14.50
2022-12-01T01:21:27.600Z,11.00
2022-12-01T01:23:56.284Z,8.50
2022-12-01T01:26:27.428Z,9.00
2022-12-01T01:29:00.312Z,14.50
2022-12-01T01:31:30.327Z,17.00
2022-12-01T01:33:58.912Z,16.00
2022-12-01T01:36:27.394Z,9.00
2022-12-01T01:38:56.081Z,12.50
2022-12-01T01:41:24.873Z,16.50
2022-12-01T01:43:59.086Z,12.00
2022-12-01T01:46:28.908Z,10.00
2022-12-01T01:49:00.661Z,15.50
2022-12-01T01:51:49.012Z,15.00
2022-12-01T01:54:31.801Z,14.67
2022-12-01T01:57:01.330Z,10.50
2022-12-01T01:59:33.008Z,20.00
2022-12-01T02:02:06.719Z,16.00
2022-12-01T02:04:37.202Z,15.00
2022-12-01T02:07:06.543Z,11.00
2022-12-01T02:09:36.463Z,13.00
2022-12-01T02:12:23.037Z,16.00
2022-12-01T02:15:22.754Z,15.50
2022-12-01T02:18:09.990Z,15.00
2022-12-01T02:21:03.552Z,13.00
2022-12-01T02:23:31.728Z,13.00
2022-12-01T02:26:24.675Z,11.00
2022-12-01T02:29:11.689Z,9.00
2022-12-01T02:31:51.947Z,13.00
2022-12-01T02:34:31.706Z,14.00
2022-12-01T02:37:10.732Z,11.00
2022-12-01T02:39:45.044Z,13.33
2022-12-01T02:42:39.943Z,13.00
2022-12-01T02:45:12.215Z,13.00
2022-12-01T02:47:41.822Z,12.00
2022-12-01T02:50:11.032Z,12.00
2022-12-01T02:52:40.833Z,15.00
2022-12-01T02:55:09.641Z,9.50
2022-12-01T02:57:37.898Z,10.00
2022-12-01T03:00:07.071Z,15.00
2022-12-01T03:02:53.768Z,10.00
2022-12-01T03:05:44.616Z,14.00
2022-12-01T03:08:24.867Z,10.00
2022-12-01T03:10:58.679Z,13.00
2022-12-01T03:13:46.510Z,12.00
2022-12-01T03:16:31.143Z,12.00
2022-12-01T03:19:11.637Z,10.00
2022-12-01T03:21:49.824Z,13.00
2022-12-01T03:24:21.092Z,12.00
2022-12-01T03:26:55.795Z,14.00
2022-12-01T03:29:40.273Z,20.50
2022-12-01T03:32:20.746Z,12.00
2022-12-01T03:34:58.925Z,16.00
2022-12-01T03:37:32.549Z,11.00
2022-12-01T03:40:03.600Z,15.00
2022-12-01T03:43:05.205Z,13.00
2022-12-01T03:46:06.170Z,12.00
2022-12-01T03:48:35.084Z,11.00
2022-12-01T03:51:23.538Z,10.50
2022-12-01T03:53:58.489Z,11.50
2022-12-01T03:56:31.045Z,12.00
2022-12-01T03:59:01.167Z,12.00
2022-12-01T04:01:34.190Z,12.00
2022-12-01T04:04:11.937Z,13.00
2022-12-01T04:06:44.354Z,13.33
2022-12-01T04:09:13.215Z,10.00
2022-12-01T04:12:00.641Z,11.00
2022-12-01T04:14:30.438Z,11.00
2022-12-01T04:16:58.629Z,7.00
2022-12-01T04:19:27.010Z,2.00
2022-12-01T04:21:55.289Z,8.00
2022-12-01T04:24:23.775Z,12.00
2022-12-01T04:26:52.150Z,13.00
2022-12-01T04:29:20.742Z,10.00
2022-12-01T04:31:49.132Z,16.00
2022-12-01T04:34:17.607Z,9.00
2022-12-01T04:36:46.073Z,9.00
2022-12-01T04:39:14.553Z,12.33
2022-12-01T04:44:11.471Z,13.00
2022-12-01T04:46:39.790Z,12.00
2022-12-01T04:49:08.500Z,13.00
2022-12-01T04:51:37.287Z,13.00
2022-12-01T04:54:06.369Z,10.00
2022-12-01T04:56:34.646Z,11.00
2022-12-01T04:59:03.125Z,11.50
2022-12-01T05:01:31.681Z,9.50
2022-12-01T05:04:00.096Z,12.00
2022-12-01T05:06:29.391Z,7.33
2022-12-01T05:08:59.920Z,9.00
2022-12-01T05:11:31.679Z,10.50
2022-12-01T05:14:00.570Z,18.00
2022-12-01T05:16:32.107Z,13.00
2022-12-01T05:19:20.986Z,13.00
2022-12-01T05:21:51.000Z,9.00
2022-12-01T05:24:20.312Z,11.00
2022-12-01T05:26:48.785Z,5.00
2022-12-01T05:29:17.467Z,9.67
2022-12-01T05:31:46.825Z,12.00
2022-12-01T05:34:15.359Z,13.00
2022-12-01T05:36:43.834Z,13.00
2022-12-01T05:39:12.219Z,7.00
2022-12-01T05:41:40.543Z,9.00
2022-12-01T05:44:11.944Z,10.00
2022-12-01T05:46:40.341Z,14.00
2022-12-01T05:49:08.703Z,11.50
2022-12-01T05:51:37.082Z,7.00
2022-12-01T05:54:05.979Z,13.00
2022-12-01T05:56:34.148Z,8.50
2022-12-01T05:59:02.524Z,11.00
2022-12-01T06:01:30.804Z,9.00
2022-12-01T06:03:59.271Z,11.00
2022-12-01T06:06:27.766Z,9.50
2022-12-01T06:08:56.145Z,9.00
2022-12-01T06:11:24.524Z,14.00
2022-12-01T06:13:52.904Z,14.00
2022-12-01T06:16:21.368Z,12.00
2022-12-01T06:18:49.809Z,8.50
2022-12-01T06:21:18.247Z,9.00
2022-12-01T06:23:46.630Z,7.00
2022-12-01T06:26:15.107Z,11.50
2022-12-01T06:28:43.592Z,9.50
2022-12-01T06:31:12.174Z,12.50
2022-12-01T06:33:40.555Z,11.50
2022-12-01T06:36:10.705Z,11.50
2022-12-01T06:38:38.848Z,11.50
2022-12-01T06:41:07.125Z,9.00
2022-12-01T06:43:38.804Z,7.00
2022-12-01T06:46:07.318Z,14.00
2022-12-01T06:48:35.849Z,12.00
2022-12-01T06:51:04.328Z,14.00
2022-12-01T06:53:33.019Z,10.00
2022-12-01T06:56:02.768Z,8.67
2022-12-01T06:58:31.614Z,8.50
2022-12-01T07:01:00.631Z,7.50
2022-12-01T07:03:28.989Z,9.00
2022-12-01T07:05:59.314Z,13.00
2022-12-01T07:08:29.341Z,11.00
2022-12-01T07:11:02.462Z,9.50
2022-12-01T07:13:33.646Z,7.50
2022-12-01T07:16:03.796Z,10.00
2022-12-01T07:18:33.297Z,7.50
2022-12-01T07:21:03.438Z,16.00
2022-12-01T07:23:31.901Z,9.00
2022-12-01T07:26:01.814Z,12.50
2022-12-01T07:28:30.603Z,7.00
2022-12-01T07:31:07.212Z,14.50
2022-12-01T07:33:36.165Z,8.00
2022-12-01T07:36:05.628Z,9.00
2022-12-01T07:38:34.976Z,7.00
2022-12-01T07:41:04.483Z,9.00
2022-12-01T07:43:33.377Z,7.00
2022-12-01T07:46:07.020Z,10.00
2022-12-01T07:48:37.590Z,10.00
2022-12-01T07:51:10.694Z,6.00
2022-12-01T07:53:39.692Z,8.00
2022-12-01T07:56:08.896Z,7.00
2022-12-01T07:58:37.675Z,5.00
2022-12-01T08:01:12.661Z,11.00
2022-12-01T08:03:41.805Z,10.00
2022-12-01T08:06:11.276Z,8.00
2022-12-01T08:08:41.322Z,8.50
2022-12-01T08:11:16.016Z,15.00
2022-12-01T08:13:44.859Z,7.00
2022-12-01T08:16:15.589Z,8.67
2022-12-01T08:18:44.993Z,11.00
2022-12-01T08:21:15.510Z,10.00
2022-12-01T08:23:44.711Z,6.00
2022-12-01T08:26:16.062Z,10.33
2022-12-01T08:28:46.810Z,5.67
2022-12-01T08:31:30.687Z,8.00
2022-12-01T08:33:59.423Z,7.50
2022-12-01T08:36:27.906Z,6.00
2022-12-01T08:38:56.900Z,7.50
2022-12-01T08:41:25.586Z,5.00
2022-12-01T08:43:58.356Z,6.00
2022-12-01T08:46:29.138Z,7.00
2022-12-01T08:48:58.089Z,7.00
2022-12-01T08:51:26.897Z,7.00
2022-12-01T08:53:57.353Z,9.00
2022-12-01T08:56:35.246Z,5.00
2022-12-01T08:59:04.418Z,5.50
2022-12-01T09:01:33.388Z,9.50
2022-12-01T09:04:07.935Z,7.00
2022-12-01T09:06:44.116Z,0.00
2022-12-01T09:09:16.531Z,6.50
2022-12-01T09:11:45.716Z,10.25
2022-12-01T09:14:15.576Z,6.00
2022-12-01T09:16:45.363Z,8.00
2022-12-01T09:19:18.000Z,6.00
2022-12-01T09:21:50.654Z,9.50
2022-12-01T09:24:19.036Z,7.00
2022-12-01T09:26:47.513Z,5.00
2022-12-01T09:29:17.120Z,8.00
2022-12-01T09:31:45.542Z,8.00
2022-12-01T09:36:43.799Z,6.00
2022-12-01T09:39:14.012Z,8.50
2022-12-01T09:41:49.420Z,8.00
2022-12-01T09:44:36.169Z,7.67
2022-12-01T09:47:13.757Z,13.00
2022-12-01T09:49:54.126Z,10.00
2022-12-01T09:52:27.836Z,11.00
2022-12-01T09:54:56.619Z,14.00
2022-12-01T09:57:36.876Z,12.00
2022-12-01T10:00:11.754Z,9.00
2022-12-01T10:03:02.527Z,23.00
2022-12-01T10:06:02.993Z,16.50
2022-12-01T10:08:36.421Z,18.50
2022-12-01T10:11:37.590Z,18.50
2022-12-01T10:14:17.966Z,23.00
2022-12-01T10:17:17.263Z,17.67
2022-12-01T10:20:11.989Z,20.00
2022-12-01T10:22:43.197Z,24.50
2022-12-01T10:25:20.693Z,20.00
2022-12-01T10:28:30.135Z,21.50
2022-12-01T10:31:05.206Z,16.00
2022-12-01T10:33:38.362Z,13.00
2022-12-01T10:36:08.601Z,26.00
2022-12-01T10:38:38.405Z,25.33
2022-12-01T10:41:12.725Z,27.00
2022-12-01T10:43:48.215Z,22.00
2022-12-01T10:46:47.777Z,24.00
2022-12-01T10:49:17.894Z,20.67
2022-12-01T10:51:49.233Z,21.00
2022-12-01T10:54:18.753Z,22.00
2022-12-01T10:56:50.261Z,24.00
2022-12-01T10:59:29.133Z,25.00
2022-12-01T11:02:00.645Z,22.00
2022-12-01T11:04:45.847Z,21.00
2022-12-01T11:07:35.125Z,16.00
2022-12-01T11:10:06.881Z,20.50
2022-12-01T11:12:35.371Z,18.50
2022-12-01T11:15:05.791Z,19.00
2022-12-01T11:17:43.062Z,19.00
2022-12-01T11:20:40.984Z,26.00
2022-12-01T11:23:22.742Z,23.00
2022-12-01T11:26:05.867Z,19.00
2022-12-01T11:28:35.476Z,21.67
2022-12-01T11:31:09.679Z,15.00
2022-12-01T11:33:48.626Z,21.00
2022-12-01T11:36:22.107Z,19.00
2022-12-01T11:38:51.118Z,12.00
2022-12-01T11:41:39.559Z,14.50
2022-12-01T11:45:02.724Z,18.50
2022-12-01T11:47:25.336Z,13.50
2022-12-01T11:49:59.690Z,19.50
2022-12-01T11:52:39.645Z,15.50
2022-12-01T11:55:11.196Z,22.00
2022-12-01T11:57:42.359Z,17.33
2022-12-01T12:00:34.003Z,20.00
2022-12-01T12:03:42.423Z,17.00
2022-12-01T12:09:02.480Z,16.50
2022-12-01T12:11:38.956Z,11.00
2022-12-01T12:14:49.097Z,16.50
2022-12-01T12:17:28.687Z,21.00
2022-12-01T12:20:08.837Z,8.00
2022-12-01T12:23:00.229Z,23.00
2022-12-01T12:26:03.981Z,18.67
2022-12-01T12:28:47.510Z,18.00
2022-12-01T12:31:57.548Z,17.00
2022-12-01T12:35:19.670Z,17.00
2022-12-01T12:37:54.953Z,24.00
2022-12-01T12:40:43.315Z,16.67
2022-12-01T12:43:24.543Z,16.00
2022-12-01T12:46:06.397Z,16.50
2022-12-01T12:49:19.344Z,21.50
2022-12-01T12:52:12.723Z,17.00
2022-12-01T12:54:51.565Z,31.00
2022-12-01T12:57:21.777Z,23.00
2022-12-01T12:59:59.895Z,20.00
2022-12-01T13:02:47.979Z,15.00
2022-12-01T13:05:36.986Z,20.67
2022-12-01T13:08:14.224Z,13.00
2022-12-01T13:11:20.683Z,16.33
2022-12-01T13:13:51.478Z,20.50
2022-12-01T13:16:34.387Z,13.50
2022-12-01T13:19:11.996Z,15.00
2022-12-01T13:21:43.630Z,24.00
2022-12-01T13:24:22.849Z,17.50
2022-12-01T13:26:57.449Z,17.50
2022-12-01T13:29:33.362Z,15.67
2022-12-01T13:32:02.565Z,23.33
2022-12-01T13:34:40.373Z,19.67
2022-12-01T13:37:10.691Z,17.00
2022-12-01T13:39:40.915Z,23.00
2022-12-01T13:42:19.849Z,20.00
2022-12-01T13:44:56.911Z,17.00
2022-12-01T13:47:25.118Z,21.50
2022-12-01T13:49:53.731Z,21.00
2022-12-01T13:52:22.227Z,19.00
2022-12-01T13:55:03.941Z,19.00
2022-12-01T13:57:34.868Z,26.00
2022-12-01T14:00:21.635Z,30.00
2022-12-01T14:03:15.114Z,25.50
2022-12-01T14:05:52.735Z,21.67
2022-12-01T14:08:29.625Z,28.00
2022-12-01T14:11:04.763Z,22.00
2022-12-01T14:13:57.375Z,34.00
2022-12-01T14:16:26.395Z,31.50
2022-12-01T14:18:59.515Z,19.50
2022-12-01T14:21:47.051Z,29.00
2022-12-01T14:24:42.269Z,25.00
2022-12-01T14:27:12.211Z,31.67
2022-12-01T14:29:44.338Z,33.00
2022-12-01T14:32:15.789Z,21.00
2022-12-01T14:34:44.887Z,26.00
2022-12-01T14:37:25.413Z,22.50
2022-12-01T14:40:23.220Z,25.00
2022-12-01T14:43:26.848Z,24.00
2022-12-01T14:46:09.242Z,22.00
2022-12-01T14:48:45.397Z,19.00
2022-12-01T14:51:28.716Z,22.00
2022-12-01T14:53:58.132Z,21.00
2022-12-01T14:56:26.815Z,24.00
2022-12-01T14:59:00.492Z,22.33
2022-12-01T15:01:34.543Z,21.00
2022-12-01T15:04:05.580Z,20.00
2022-12-01T15:06:35.690Z,16.50
2022-12-01T15:09:33.930Z,22.50
2022-12-01T15:12:07.899Z,21.00
2022-12-01T15:14:37.491Z,25.00
2022-12-01T15:17:09.250Z,26.00
2022-12-01T15:19:40.117Z,19.00
2022-12-01T15:22:16.581Z,16.00
2022-12-01T15:24:45.653Z,15.00
2022-12-01T15:27:29.750Z,15.50
2022-12-01T15:30:03.624Z,23.50
2022-12-01T15:32:33.520Z,20.00
2022-12-01T15:35:03.845Z,27.00
2022-12-01T15:37:42.190Z,25.00
2022-12-01T15:43:19.987Z,17.00
2022-12-01T15:45:56.661Z,17.00
2022-12-01T15:48:34.571Z,19.50
2022-12-01T15:51:15.336Z,20.00
2022-12-01T15:53:55.469Z,16.00
2022-12-01T15:56:36.450Z,13.00
2022-12-01T15:59:13.438Z,18.67
2022-12-01T16:01:43.551Z,13.67
2022-12-01T16:04:29.666Z,17.00
2022-12-01T16:07:07.350Z,18.00
2022-12-01T16:09:59.237Z,16.00
2022-12-01T16:12:33.328Z,12.67
2022-12-01T16:15:01.675Z,18.00
2022-12-01T16:17:51.044Z,12.50
2022-12-01T16:20:31.709Z,15.00
2022-12-01T16:23:09.715Z,14.50
2022-12-01T16:25:40.350Z,20.50
2022-12-01T16:28:23.175Z,19.25
2022-12-01T16:30:52.888Z,13.00
2022-12-01T16:33:25.058Z,18.00
2022-12-01T16:35:54.242Z,15.50
2022-12-01T16:38:24.563Z,14.00
2022-12-01T16:41:00.728Z,17.67
2022-12-01T16:43:30.203Z,10.00
2022-12-01T16:46:01.345Z,13.00
2022-12-01T16:48:30.779Z,12.00
2022-12-01T16:51:03.359Z,11.50
2022-12-01T16:53:31.944Z,10.50
2022-12-01T16:56:02.053Z,16.67
2022-12-01T16:58:30.733Z,12.00
2022-12-01T17:00:59.261Z,9.75
2022-12-01T17:03:28.739Z,11.67
2022-12-01T17:06:00.599Z,14.50
2022-12-01T17:08:28.996Z,15.00
2022-12-01T17:10:59.409Z,11.50
2022-12-01T17:13:28.603Z,10.00
2022-12-01T17:15:56.982Z,9.67
2022-12-01T17:18:25.674Z,12.00
2022-12-01T17:21:01.585Z,11.50
2022-12-01T17:23:30.220Z,17.00
2022-12-01T17:25:59.112Z,11.00
2022-12-01T17:28:27.787Z,13.00
2022-12-01T17:31:00.767Z,16.67
2022-12-01T17:33:29.157Z,17.00
2022-12-01T17:36:02.350Z,9.50
2022-12-01T17:38:31.135Z,17.00
2022-12-01T17:41:25.012Z,14.00
2022-12-01T17:43:54.549Z,14.00
2022-12-01T17:46:23.778Z,13.50
2022-12-01T17:48:52.010Z,9.00
2022-12-01T17:51:20.415Z,14.00
2022-12-01T17:53:49.167Z,17.25
2022-12-01T17:56:17.850Z,12.00
2022-12-01T17:58:46.281Z,12.00
2022-12-01T18:01:17.125Z,15.33
2022-12-01T18:03:46.061Z,10.00
2022-12-01T18:06:15.466Z,11.67
2022-12-01T18:08:43.947Z,14.00
2022-12-01T18:11:14.678Z,13.00
2022-12-01T18:13:45.521Z,9.00
2022-12-01T18:16:19.878Z,11.00
2022-12-01T18:18:48.744Z,13.00
2022-12-01T18:21:19.175Z,12.67
2022-12-01T18:23:58.692Z,9.67
2022-12-01T18:26:28.403Z,11.67
2022-12-01T18:29:05.121Z,11.00
2022-12-01T18:31:34.247Z,13.00
2022-12-01T18:34:03.826Z,12.50
2022-12-01T18:36:33.663Z,12.00
2022-12-01T18:39:03.628Z,13.00
2022-12-01T18:41:32.198Z,9.67
2022-12-01T18:44:00.818Z,10.75
2022-12-01T18:46:29.533Z,8.50
2022-12-01T18:49:03.240Z,9.00
2022-12-01T18:51:35.859Z,7.00
2022-12-01T18:54:05.616Z,12.00
2022-12-01T18:56:34.864Z,9.67
2022-12-01T18:59:06.378Z,11.00
2022-12-01T19:01:40.696Z,14.00
2022-12-01T19:04:09.936Z,14.00
2022-12-01T19:06:39.751Z,10.00
2022-12-01T19:09:10.482Z,10.00
2022-12-01T19:11:40.822Z,9.33
2022-12-01T19:14:15.231Z,9.33
2022-12-01T19:16:44.169Z,11.00
2022-12-01T19:19:12.908Z,8.00
2022-12-01T19:21:41.391Z,15.00
2022-12-01T19:24:09.671Z,14.00
2022-12-01T19:26:38.559Z,10.00
2022-12-01T19:29:07.041Z,10.33
2022-12-01T19:31:35.358Z,10.00
2022-12-01T19:34:04.856Z,12.00
2022-12-01T19:36:33.720Z,13.00
2022-12-01T19:39:04.366Z,9.50
2022-12-01T19:41:35.803Z,10.00
2022-12-01T19:44:04.594Z,9.00
2022-12-01T19:46:33.170Z,11.00
2022-12-01T19:49:02.480Z,9.00
2022-12-01T19:51:35.397Z,9.75
2022-12-01T19:54:05.988Z,10.75
2022-12-01T19:56:34.980Z,5.50
2022-12-01T19:59:03.557Z,12.00
2022-12-01T20:01:32.272Z,10.50
2022-12-01T20:04:00.946Z,9.67
2022-12-01T20:06:31.779Z,5.67
2022-12-01T20:09:02.040Z,11.50
2022-12-01T20:11:33.072Z,13.50
2022-12-01T20:14:03.579Z,8.75
2022-12-01T20:16:32.596Z,9.00
2022-12-01T20:19:02.787Z,12.00
2022-12-01T20:21:33.547Z,7.50
2022-12-01T20:24:04.276Z,11.67
2022-12-01T20:27:00.181Z,12.00
2022-12-01T20:29:29.796Z,9.00
2022-12-01T20:32:00.461Z,10.00
2022-12-01T20:34:31.889Z,10.00
2022-12-01T20:37:00.358Z,11.00
2022-12-01T20:39:31.646Z,10.00
2022-12-01T20:42:00.491Z,8.50
2022-12-01T20:44:28.715Z,12.67
2022-12-01T20:46:57.913Z,9.00
2022-12-01T20:49:26.207Z,9.75
2022-12-01T20:51:54.465Z,9.00
2022-12-01T20:54:30.414Z,8.50
2022-12-01T20:56:59.282Z,11.00
2022-12-01T20:59:27.856Z,5.50
2022-12-01T21:01:56.562Z,8.00
2022-12-01T21:04:25.065Z,5.00
2022-12-01T21:06:57.608Z,14.00
2022-12-01T21:09:26.406Z,10.67
2022-12-01T21:12:13.715Z,7.00
2022-12-01T21:14:49.277Z,13.33
2022-12-01T21:17:40.164Z,5.00
2022-12-01T21:20:09.167Z,9.33
2022-12-01T21:22:37.545Z,16.50
2022-12-01T21:25:16.062Z,9.00
2022-12-01T21:27:44.536Z,9.67
2022-12-01T21:30:19.951Z,8.00
2022-12-01T21:32:49.492Z,8.67
2022-12-01T21:35:20.587Z,11.00
2022-12-01T21:37:50.156Z,10.50
2022-12-01T21:40:20.669Z,12.50
2022-12-01T21:42:49.560Z,6.00
2022-12-01T21:45:32.436Z,8.00
2022-12-01T21:48:06.981Z,8.67
2022-12-01T21:50:35.280Z,10.50
2022-12-01T21:53:12.090Z,7.00
2022-12-01T21:55:42.910Z,8.00
2022-12-01T21:58:34.832Z,8.50
2022-12-01T22:01:15.343Z,7.00
2022-12-01T22:03:45.833Z,6.33
2022-12-01T22:06:31.720Z,8.50
2022-12-01T22:09:12.685Z,8.00
2022-12-01T22:11:43.134Z,8.33
2022-12-01T22:14:22.468Z,7.50
2022-12-01T22:16:56.528Z,6.00
2022-12-01T22:19:38.151Z,4.67
2022-12-01T22:22:09.704Z,7.00
2022-12-01T22:24:41.319Z,8.00
2022-12-01T22:27:40.352Z,8.50
2022-12-01T22:30:08.735Z,6.00
2022-12-01T22:32:56.622Z,7.00
2022-12-01T22:35:45.136Z,4.00
2022-12-01T22:38:35.122Z,8.00
2022-12-01T22:41:07.345Z,7.33
2022-12-01T22:43:46.821Z,6.00
2022-12-01T22:46:18.338Z,8.00
2022-12-01T22:48:54.636Z,10.00
2022-12-01T22:51:27.500Z,6.00
2022-12-01T22:54:17.232Z,7.00
2022-12-01T22:56:59.620Z,8.00
2022-12-01T22:59:39.766Z,7.33
2022-12-01T23:02:21.390Z,6.50
2022-12-01T23:04:53.822Z,9.00
2022-12-01T23:07:35.585Z,8.67
2022-12-01T23:10:12.296Z,5.00
2022-12-01T23:12:41.182Z,7.00
2022-12-01T23:15:31.682Z,8.50
2022-12-01T23:18:25.047Z,10.33
2022-12-01T23:20:57.950Z,6.00
2022-12-01T23:23:31.867Z,5.00
2022-12-01T23:26:03.913Z,6.75
2022-12-01T23:28:32.187Z,5.00
2022-12-01T23:31:00.827Z,6.67
2022-12-01T23:33:30.906Z,5.00
2022-12-01T23:36:01.520Z,4.00
2022-12-01T23:38:35.318Z,8.00
2022-12-01T23:41:07.391Z,6.00
2022-12-01T23:43:42.215Z,6.25
2022-12-01T23:46:19.293Z,8.00
2022-12-01T23:48:51.839Z,10.00
2022-12-01T23:51:24.169Z,7.00
2022-12-01T23:53:53.967Z,7.33
2022-12-01T23:56:24.939Z,7.00
2022-12-01T23:58:53.697Z,10.00
